Time;durP1;ratioP1;P1;durP2;ratioP2;P2;SDS_P1;SDS_P2;PMS_P1;PMS_P2;Temp;Humidity;BMP_temperature;BMP_pressure;BME280_temperature;BME280_humidity;BME280_pressure;Samples;Min_cycle;Max_cycle;Signal;HPM_P1;HPM_P2
2022/06/20 00:01:39;;;;;;;7.67;3.53;;;;;;;27.61;43.91;99546.34;5025001;28;20442;-73
2022/06/20 00:04:04;;;;;;;7.53;3.17;;;;;;;27.61;43.85;99541.56;5009127;28;20494;-73
2022/06/20 00:06:30;;;;;;;7.28;3.47;;;;;;;27.62;44.07;99539.59;5029777;28;20774;-74
2022/06/20 00:08:56;;;;;;;7.97;3.30;;;;;;;27.57;43.99;99528.78;5030076;28;20410;-73
2022/06/20 00:11:27;;;;;;;6.20;3.43;;;;;;;27.52;43.99;99538.28;5034353;28;20395;-74
2022/06/20 00:13:54;;;;;;;6.47;3.17;;;;;;;27.47;44.25;99546.16;5032767;28;20453;-73
2022/06/20 00:16:21;;;;;;;9.38;3.22;;;;;;;27.41;44.50;99528.19;5015523;28;20403;-74
2022/06/20 00:18:46;;;;;;;7.00;3.23;;;;;;;27.43;44.57;99536.97;5032312;28;20945;-73
2022/06/20 00:21:19;;;;;;;4.80;3.13;;;;;;;27.42;44.62;99538.13;5032241;28;20506;-74
2022/06/20 00:23:44;;;;;;;10.68;4.00;;;;;;;27.37;44.88;99535.69;5026620;28;20398;-74
2022/06/20 00:26:10;;;;;;;7.50;3.40;;;;;;;27.32;44.88;99539.63;5032371;28;20444;-73
2022/06/20 00:28:36;;;;;;;9.68;3.97;;;;;;;27.27;44.99;99523.25;5027206;28;20418;-73
2022/06/20 00:31:02;;;;;;;8.20;3.27;;;;;;;27.24;44.80;99518.44;5027061;28;20404;-74
2022/06/20 00:33:28;;;;;;;7.90;3.88;;;;;;;27.24;44.77;99535.13;5022839;28;20420;-73
2022/06/20 00:35:53;;;;;;;9.85;3.40;;;;;;;27.25;44.72;99536.75;5030174;28;20395;-73
2022/06/20 00:38:21;;;;;;;8.63;3.53;;;;;;;27.26;44.75;99543.91;5027648;28;20413;-74
2022/06/20 00:40:49;;;;;;;8.23;3.20;;;;;;;27.17;45.25;99535.03;5026420;28;20401;-74
2022/06/20 00:43:30;;;;;;;9.23;4.30;;;;;;;27.13;45.56;99539.78;5030225;28;20871;-73
2022/06/20 00:45:57;;;;;;;9.07;3.80;;;;;;;27.04;45.93;99539.22;5031025;28;20402;-74
2022/06/20 00:48:28;;;;;;;7.25;3.25;;;;;;;27.01;46.21;99542.75;5031233;28;20434;-73
2022/06/20 00:50:56;;;;;;;8.57;3.53;;;;;;;27.01;46.26;99551.91;5032083;28;20391;-73
2022/06/20 00:53:49;;;;;;;12.25;4.15;;;;;;;27.00;46.32;99538.41;5014334;28;20413;-73
2022/06/20 00:56:22;;;;;;;6.40;3.70;;;;;;;26.96;46.49;99537.53;5032071;28;20886;-73
2022/06/20 00:58:55;;;;;;;10.15;3.60;;;;;;;26.94;46.77;99532.34;5031858;28;21260;-73
2022/06/20 01:01:29;;;;;;;8.98;4.03;;;;;;;26.78;46.94;99535.28;5031756;28;20920;-74
2022/06/20 01:04:00;;;;;;;9.32;3.28;;;;;;;26.73;47.16;99524.50;5034005;28;20502;-73
2022/06/20 01:06:30;;;;;;;8.45;3.60;;;;;;;26.75;47.19;99530.47;5025993;28;20409;-74
2022/06/20 01:09:05;;;;;;;8.38;3.90;;;;;;;26.57;47.61;99526.63;5031865;28;20426;-73
2022/06/20 01:11:51;;;;;;;11.20;3.90;;;;;;;26.58;47.52;99524.63;5023909;28;20401;-73
2022/06/20 01:14:34;;;;;;;6.57;3.33;;;;;;;26.64;47.53;99521.16;5033020;28;20498;-73
2022/06/20 01:17:04;;;;;;;7.43;3.88;;;;;;;26.65;47.57;99513.63;5021496;28;20396;-73
2022/06/20 01:19:51;;;;;;;7.82;3.30;;;;;;;26.62;47.69;99515.19;5030036;28;20439;-74
2022/06/20 01:22:28;;;;;;;10.48;3.75;;;;;;;26.64;47.55;99518.38;5026631;28;20418;-73
2022/06/20 01:25:25;;;;;;;10.50;3.55;;;;;;;26.63;47.71;99522.38;5022448;28;20489;-73
2022/06/20 01:27:51;;;;;;;8.80;3.70;;;;;;;26.65;47.45;99522.78;4998281;28;20894;-74
2022/06/20 01:30:19;;;;;;;7.93;3.53;;;;;;;26.66;47.39;99523.59;5027379;28;20498;-73
2022/06/20 01:32:44;;;;;;;7.32;3.22;;;;;;;26.67;47.20;99527.97;5013655;28;21072;-73
2022/06/20 01:35:12;;;;;;;6.17;3.47;;;;;;;26.58;47.39;99535.75;5031995;28;20518;-74
2022/06/20 01:37:42;;;;;;;5.93;3.10;;;;;;;26.52;47.50;99540.84;5032282;28;20442;-73
2022/06/20 01:40:12;;;;;;;9.32;4.03;;;;;;;26.45;47.62;99542.69;5011797;28;20415;-74
2022/06/20 01:42:39;;;;;;;7.63;3.17;;;;;;;26.36;47.98;99540.19;5031721;28;20399;-74
2022/06/20 01:48:15;;;;;;;11.55;4.20;;;;;;;26.31;48.21;99534.97;5029681;28;20386;-73
2022/06/20 01:50:42;;;;;;;8.23;3.92;;;;;;;26.24;48.32;99540.41;5023771;28;20406;-74
2022/06/20 01:53:11;;;;;;;8.15;3.53;;;;;;;26.25;48.33;99550.31;5009478;28;20407;-74
2022/06/20 01:55:37;;;;;;;8.75;3.80;;;;;;;26.28;48.14;99546.78;5027941;28;20401;-73
2022/06/20 01:58:10;;;;;;;9.43;3.70;;;;;;;26.22;48.18;99540.75;5012633;28;20407;-74
2022/06/20 02:00:36;;;;;;;11.45;3.58;;;;;;;26.15;48.38;99543.38;5027811;28;20431;-73
2022/06/20 02:03:07;;;;;;;11.03;4.63;;;;;;;26.10;48.30;99551.22;5029016;28;20890;-74
2022/06/20 02:05:32;;;;;;;11.10;3.97;;;;;;;26.03;48.62;99543.56;5014535;28;20743;-73
2022/06/20 02:08:01;;;;;;;9.73;4.33;;;;;;;26.00;49.01;99538.75;5028882;28;20430;-73
2022/06/20 02:10:37;;;;;;;7.95;3.78;;;;;;;25.87;49.10;99544.84;5026497;28;20829;-73
2022/06/20 02:13:03;;;;;;;8.90;4.20;;;;;;;25.80;49.77;99539.97;5029296;28;20411;-73
2022/06/20 02:15:32;;;;;;;7.32;3.65;;;;;;;25.82;49.46;99557.03;5031625;28;20456;-73
2022/06/20 02:18:01;;;;;;;12.27;4.03;;;;;;;25.82;49.52;99557.03;5031161;28;20402;-74
2022/06/20 02:20:47;;;;;;;9.70;3.60;;;;;;;25.86;49.54;99565.44;5025713;28;20419;-73
2022/06/20 02:23:19;;;;;;;9.55;3.95;;;;;;;25.81;50.32;99558.25;5023489;28;20908;-74
2022/06/20 02:25:48;;;;;;;10.35;3.55;;;;;;;25.87;50.46;99572.59;5032102;28;20411;-73
2022/06/20 02:28:25;;;;;;;6.35;3.83;;;;;;;25.93;50.29;99588.59;5020933;28;20414;-73
2022/06/20 02:30:51;;;;;;;8.13;3.90;;;;;;;25.82;50.86;99601.47;5022121;28;20906;-73
2022/06/20 02:33:22;;;;;;;7.70;3.50;;;;;;;25.81;51.16;99630.41;5026077;28;20418;-74
2022/06/20 02:35:49;;;;;;;6.87;3.50;;;;;;;25.80;51.16;99646.25;5026452;28;20422;-73
2022/06/20 02:38:14;;;;;;;7.18;3.75;;;;;;;25.74;51.50;99661.59;5024551;28;20419;-73
2022/06/20 02:40:42;;;;;;;13.73;3.50;;;;;;;25.67;51.68;99664.22;5026457;28;20420;-73
2022/06/20 02:43:16;;;;;;;10.10;3.65;;;;;;;25.59;51.30;99673.53;5022639;28;20502;-74
2022/06/20 02:45:43;;;;;;;7.93;3.30;;;;;;;25.53;51.17;99679.75;5028625;28;20410;-73
2022/06/20 02:48:11;;;;;;;6.25;3.65;;;;;;;25.46;51.35;99682.31;5027602;28;20445;-74
2022/06/20 02:50:42;;;;;;;7.93;3.25;;;;;;;25.42;50.77;99685.03;5010709;28;20405;-74
2022/06/20 02:53:24;;;;;;;6.82;3.00;;;;;;;25.42;50.38;99682.28;5029887;28;20487;-74
2022/06/20 02:55:51;;;;;;;8.13;2.90;;;;;;;25.50;49.96;99691.56;5007904;28;20821;-74
2022/06/20 02:58:25;;;;;;;7.10;2.90;;;;;;;25.60;49.10;99694.59;5028166;28;20395;-74
2022/06/20 03:01:17;;;;;;;7.10;3.10;;;;;;;25.65;48.80;99685.19;5018256;28;20398;-74
2022/06/20 03:03:50;;;;;;;10.05;2.88;;;;;;;25.66;48.59;99692.31;5031868;28;20490;-73
2022/06/20 03:06:24;;;;;;;6.65;2.95;;;;;;;25.55;48.38;99688.53;5012163;28;20937;-74
2022/06/20 03:08:52;;;;;;;9.00;2.87;;;;;;;25.57;48.18;99684.22;5017814;28;20475;-74
2022/06/20 03:11:17;;;;;;;6.30;3.10;;;;;;;25.50;48.67;99683.25;5028380;28;20395;-74
2022/06/20 03:13:43;;;;;;;8.20;2.63;;;;;;;25.53;48.68;99697.19;5021106;28;20903;-73
2022/06/20 03:16:09;;;;;;;8.50;2.90;;;;;;;25.44;49.08;99679.94;5028891;28;20448;-74
2022/06/20 03:18:40;;;;;;;7.53;2.90;;;;;;;25.45;48.84;99689.88;5023675;28;20579;-74
2022/06/20 03:21:06;;;;;;;7.88;3.10;;;;;;;25.51;48.65;99691.22;5012345;28;20449;-73
2022/06/20 03:23:33;;;;;;;9.83;2.73;;;;;;;25.52;48.40;99694.78;5026472;28;20452;-73
2022/06/20 03:26:02;;;;;;;6.03;2.92;;;;;;;25.55;48.27;99721.81;5024789;28;20416;-73
2022/06/20 03:28:30;;;;;;;7.28;2.47;;;;;;;25.47;48.03;99751.31;5027923;28;20898;-74
2022/06/20 03:31:00;;;;;;;7.47;2.60;;;;;;;25.57;47.66;99761.09;5009980;28;20763;-73
2022/06/20 03:33:26;;;;;;;12.50;3.00;;;;;;;25.57;47.75;99750.81;5029421;28;20414;-74
2022/06/20 03:35:55;;;;;;;8.05;2.60;;;;;;;25.49;47.87;99743.44;5026846;28;20887;-73
2022/06/20 03:38:22;;;;;;;6.85;2.72;;;;;;;25.44;48.10;99737.38;5027915;28;20762;-73
2022/06/20 03:40:48;;;;;;;6.03;2.63;;;;;;;25.50;47.69;99741.50;5030433;28;20403;-73
2022/06/20 03:43:18;;;;;;;5.93;2.40;;;;;;;25.42;47.76;99743.28;5030168;28;20478;-73
2022/06/20 03:45:49;;;;;;;9.98;3.20;;;;;;;25.37;47.44;99734.44;5029080;28;20400;-73
2022/06/20 03:48:18;;;;;;;6.60;2.78;;;;;;;25.34;47.65;99726.84;5020022;28;20488;-73
2022/06/20 03:51:05;;;;;;;7.53;2.72;;;;;;;25.30;47.62;99733.09;5031376;28;20383;-74
2022/06/20 03:53:41;;;;;;;8.17;2.57;;;;;;;25.32;47.29;99740.25;5024752;28;20895;-74
2022/06/20 03:56:28;;;;;;;5.65;2.40;;;;;;;25.25;47.00;99721.50;5026384;28;20469;-73
2022/06/20 03:59:01;;;;;;;8.35;2.47;;;;;;;25.12;47.23;99722.75;5025815;28;20490;-74
2022/06/20 04:01:35;;;;;;;7.43;2.53;;;;;;;25.13;47.26;99710.47;5023281;28;20935;-74
2022/06/20 04:04:07;;;;;;;7.88;2.55;;;;;;;25.04;47.55;99727.31;5021674;28;20399;-73
2022/06/20 04:06:46;;;;;;;9.57;1.98;;;;;;;25.15;47.36;99722.84;5028056;28;20794;-74
2022/06/20 04:12:27;;;;;;;7.50;2.30;;;;;;;25.05;46.88;99719.81;5021730;28;20529;-74
2022/06/20 04:15:08;;;;;;;6.27;2.10;;;;;;;24.95;47.24;99714.81;5026640;28;20426;-74
2022/06/20 04:20:49;;;;;;;8.38;1.88;;;;;;;25.11;46.96;99737.78;5028507;28;20395;-74
2022/06/20 04:23:35;;;;;;;7.20;1.65;;;;;;;25.18;46.68;99726.88;5027252;28;20782;-74
2022/06/20 04:26:13;;;;;;;7.93;2.15;;;;;;;25.19;46.63;99714.63;5005234;28;20403;-73
2022/06/20 04:28:48;;;;;;;6.87;1.70;;;;;;;25.06;46.45;99707.56;5022096;28;20805;-73
2022/06/20 04:31:31;;;;;;;9.40;2.65;;;;;;;25.07;46.49;99711.94;5025835;28;20418;-73
2022/06/20 04:34:10;;;;;;;8.77;2.17;;;;;;;25.14;46.44;99717.66;5024459;28;20441;-73
2022/06/20 04:37:03;;;;;;;7.32;1.92;;;;;;;24.95;46.27;99732.25;5007934;28;20809;-74
2022/06/20 04:40:04;;;;;;;4.18;1.90;;;;;;;24.92;46.40;99730.19;5021162;28;20462;-74
2022/06/20 04:42:48;;;;;;;5.68;2.38;;;;;;;25.01;46.11;99739.13;5003467;28;20426;-73
2022/06/20 04:45:18;;;;;;;5.93;2.03;;;;;;;25.10;45.85;99736.97;5021117;28;20842;-74
2022/06/20 04:47:58;;;;;;;3.37;1.93;;;;;;;25.13;45.81;99739.03;5028102;28;20774;-74
2022/06/20 04:50:26;;;;;;;8.18;2.13;;;;;;;25.11;46.13;99737.78;5007188;28;23418;-74
2022/06/20 04:52:55;;;;;;;3.92;1.95;;;;;;;25.03;46.09;99758.97;5022853;28;20497;-77
2022/06/20 04:55:23;;;;;;;9.70;2.00;;;;;;;25.08;46.04;99755.13;5024874;28;20426;-74
2022/06/20 04:57:51;;;;;;;7.85;2.08;;;;;;;25.19;45.79;99758.97;5028602;28;20395;-74
2022/06/20 05:00:23;;;;;;;6.15;2.15;;;;;;;25.21;45.93;99759.41;5013929;28;20770;-74
2022/06/20 05:02:51;;;;;;;8.32;1.80;;;;;;;25.22;46.01;99764.63;5033588;28;20399;-74
2022/06/20 05:05:21;;;;;;;12.43;2.10;;;;;;;25.22;45.99;99759.06;5030162;28;20419;-74
2022/06/20 05:07:48;;;;;;;9.87;2.50;;;;;;;25.18;46.14;99755.41;5031438;28;20419;-73
2022/06/20 05:10:19;;;;;;;4.57;1.90;;;;;;;25.18;46.55;99762.91;5026273;28;20932;-74
2022/06/20 05:12:55;;;;;;;13.93;2.25;;;;;;;25.10;46.69;99767.47;5033495;28;20406;-74
2022/06/20 05:15:43;;;;;;;7.93;2.40;;;;;;;25.17;46.54;99772.38;5030077;28;20407;-74
2022/06/20 05:18:17;;;;;;;7.80;2.15;;;;;;;25.22;46.34;99766.59;5033240;28;20395;-73
2022/06/20 05:20:44;;;;;;;8.05;2.30;;;;;;;25.13;46.52;99754.84;5031901;28;20407;-74
2022/06/20 05:23:24;;;;;;;6.07;2.07;;;;;;;24.98;46.79;99766.75;5040655;28;20412;-73
2022/06/20 05:25:51;;;;;;;9.07;2.17;;;;;;;25.07;46.99;99776.50;5017932;28;20418;-73
2022/06/20 05:28:19;;;;;;;7.15;2.22;;;;;;;25.20;46.37;99774.44;5026918;28;20430;-74
2022/06/20 05:30:46;;;;;;;7.15;2.28;;;;;;;25.26;46.63;99767.44;5015080;28;20415;-73
2022/06/20 05:33:26;;;;;;;6.95;2.40;;;;;;;25.30;46.55;99780.25;5027927;28;20437;-73
2022/06/20 05:36:00;;;;;;;7.85;2.22;;;;;;;25.31;46.51;99772.75;5030344;28;20744;-73
2022/06/20 05:39:15;;;;;;;13.40;2.60;;;;;;;25.17;47.07;99783.47;5029274;28;20454;-74
2022/06/20 05:41:44;;;;;;;4.13;2.10;;;;;;;25.10;47.29;99780.53;5009999;28;20787;-73
2022/06/20 05:44:11;;;;;;;8.95;2.33;;;;;;;25.10;47.05;99763.88;5004404;28;20411;-74
2022/06/20 05:46:42;;;;;;;8.48;2.35;;;;;;;25.09;47.05;99770.63;5029346;28;20425;-73
2022/06/20 05:49:16;;;;;;;6.70;2.17;;;;;;;25.17;46.32;99778.75;5029326;28;20417;-73
2022/06/20 05:51:44;;;;;;;8.88;2.30;;;;;;;25.23;46.07;99773.72;5014262;28;20407;-74
2022/06/20 05:54:14;;;;;;;4.07;2.30;;;;;;;25.24;46.41;99787.25;5012890;28;20427;-74
2022/06/20 05:56:58;;;;;;;8.70;2.42;;;;;;;25.15;46.77;99786.63;5029383;28;20440;-73
2022/06/20 05:59:26;;;;;;;7.60;2.37;;;;;;;25.04;47.21;99780.00;5029745;28;20755;-73
2022/06/20 06:01:55;;;;;;;8.20;2.60;;;;;;;25.02;47.34;99789.84;5023619;28;20403;-73
2022/06/20 06:04:28;;;;;;;7.13;2.45;;;;;;;24.97;47.41;99788.13;5029857;28;20490;-73
2022/06/20 06:07:01;;;;;;;7.28;2.03;;;;;;;25.09;47.11;99796.34;5004856;28;20430;-74
2022/06/20 06:09:45;;;;;;;6.18;2.13;;;;;;;25.17;47.34;99792.59;5012473;28;20409;-74
2022/06/20 06:12:21;;;;;;;7.07;2.20;;;;;;;25.21;47.00;99806.56;5001914;28;20404;-73
2022/06/20 06:14:56;;;;;;;6.82;2.20;;;;;;;25.00;47.47;99806.00;5009034;28;20440;-74
2022/06/20 06:17:33;;;;;;;6.13;1.90;;;;;;;24.92;47.04;99809.75;5008646;28;20401;-74
2022/06/20 06:20:10;;;;;;;8.82;2.40;;;;;;;24.75;48.11;99811.69;5004620;28;20416;-73
2022/06/20 06:22:39;;;;;;;9.43;2.38;;;;;;;24.68;48.35;99814.25;5004960;28;20456;-73
2022/06/20 06:25:10;;;;;;;8.57;2.53;;;;;;;24.63;48.66;99822.03;5010191;28;20408;-73
2022/06/20 06:27:36;;;;;;;10.70;2.45;;;;;;;24.53;49.00;99823.34;5010648;28;20401;-73
2022/06/20 06:30:17;;;;;;;7.70;2.30;;;;;;;24.60;49.31;99831.06;5012469;28;20880;-73
2022/06/20 06:32:48;;;;;;;8.18;2.42;;;;;;;24.72;49.09;99842.88;5011971;28;20409;-73
2022/06/20 06:35:42;;;;;;;9.48;2.47;;;;;;;24.78;48.44;99846.19;5010188;28;20423;-73
2022/06/20 06:38:23;;;;;;;6.00;2.42;;;;;;;24.80;48.94;99852.97;5004980;28;20429;-73
2022/06/20 06:40:51;;;;;;;5.95;2.20;;;;;;;24.92;48.98;99854.94;4996906;28;20407;-74
2022/06/20 06:43:26;;;;;;;7.43;2.00;;;;;;;24.96;48.68;99866.91;5012518;28;20405;-73
2022/06/20 06:45:56;;;;;;;7.85;2.38;;;;;;;24.95;48.94;99878.34;5003993;28;20982;-73
2022/06/20 06:48:47;;;;;;;6.20;2.25;;;;;;;24.99;48.66;99885.63;5009283;28;20408;-73
2022/06/20 06:51:19;;;;;;;6.50;2.33;;;;;;;25.00;48.25;99881.66;5005804;28;20479;-73
2022/06/20 06:53:58;;;;;;;6.45;2.05;;;;;;;25.07;48.36;99892.13;4998928;28;20418;-73
2022/06/20 06:56:30;;;;;;;5.57;2.08;;;;;;;25.17;47.81;99895.19;5004565;28;20414;-73
2022/06/20 06:59:04;;;;;;;6.95;2.05;;;;;;;25.28;47.74;99912.94;5010284;28;20503;-73
2022/06/20 07:01:39;;;;;;;5.28;2.00;;;;;;;25.35;47.31;99915.09;5004634;28;20413;-73
2022/06/20 07:04:27;;;;;;;8.05;2.40;;;;;;;25.49;46.81;99909.91;5003727;28;20395;-74
2022/06/20 07:06:58;;;;;;;7.40;2.28;;;;;;;25.55;46.61;99913.25;5019504;28;20419;-74
2022/06/20 07:09:26;;;;;;;13.82;2.38;;;;;;;25.44;46.51;99914.91;5029519;28;20418;-74
2022/06/20 07:12:00;;;;;;;5.75;2.28;;;;;;;25.44;46.64;99909.38;5030952;28;20746;-74
2022/06/20 07:14:25;;;;;;;6.32;2.53;;;;;;;25.49;46.64;99912.66;5027343;28;20885;-74
2022/06/20 07:16:59;;;;;;;4.43;1.87;;;;;;;25.51;46.18;99915.13;5021038;28;20488;-73
2022/06/20 07:19:26;;;;;;;5.13;2.20;;;;;;;25.58;46.30;99916.13;5012502;28;21032;-73
2022/06/20 07:21:53;;;;;;;8.75;2.08;;;;;;;25.76;46.11;99920.13;5030476;28;20407;-74
2022/06/20 07:24:26;;;;;;;8.25;2.05;;;;;;;25.95;45.91;99916.63;5023282;28;20431;-74
2022/06/20 07:27:16;;;;;;;7.45;2.10;;;;;;;26.04;45.50;99914.47;5020713;28;20395;-74
2022/06/20 07:30:01;;;;;;;6.00;2.28;;;;;;;26.06;45.55;99905.75;5026678;28;20443;-74
2022/06/20 07:32:59;;;;;;;7.82;2.28;;;;;;;26.10;45.21;99878.88;5025068;28;20825;-73
2022/06/20 07:35:29;;;;;;;7.40;2.50;;;;;;;26.13;45.40;99892.84;5012770;28;20411;-74
2022/06/20 07:38:06;;;;;;;6.65;2.60;;;;;;;26.13;45.92;99889.28;5027696;28;20411;-74
2022/06/20 07:40:39;;;;;;;8.05;2.70;;;;;;;26.11;45.85;99886.88;5025407;28;20449;-74
2022/06/20 07:43:22;;;;;;;6.80;2.50;;;;;;;26.17;45.80;99901.31;5022464;28;20454;-74
2022/06/20 07:45:50;;;;;;;7.10;2.25;;;;;;;26.18;45.87;99886.25;5029896;28;20398;-74
2022/06/20 07:48:21;;;;;;;6.87;2.80;;;;;;;26.00;46.05;99883.03;5028814;28;20481;-74
2022/06/20 07:50:52;;;;;;;5.75;2.90;;;;;;;25.91;46.53;99884.41;5026696;28;20472;-73
2022/06/20 07:53:24;;;;;;;8.40;2.30;;;;;;;25.93;46.36;99882.06;5027541;28;20421;-74
2022/06/20 07:55:56;;;;;;;5.55;2.88;;;;;;;25.85;46.38;99874.75;5010929;28;20441;-74
2022/06/20 07:58:28;;;;;;;7.82;2.70;;;;;;;25.97;46.46;99885.72;5030540;28;20819;-73
2022/06/20 08:00:54;;;;;;;7.20;3.03;;;;;;;26.01;46.78;99884.66;5028672;28;20422;-73
2022/06/20 08:03:29;;;;;;;6.97;2.80;;;;;;;26.17;46.43;99867.97;5027049;28;20418;-73
2022/06/20 08:05:59;;;;;;;8.43;3.00;;;;;;;26.45;46.08;99860.25;5020750;28;20473;-74
2022/06/20 08:08:57;;;;;;;4.53;2.90;;;;;;;26.61;46.19;99865.75;5029103;28;20399;-73
2022/06/20 08:11:42;;;;;;;6.95;3.40;;;;;;;26.86;45.58;99866.25;5027587;28;20799;-74
2022/06/20 08:14:18;;;;;;;9.65;3.35;;;;;;;26.94;45.35;99873.56;5005022;28;20913;-73
2022/06/20 08:16:47;;;;;;;6.70;3.27;;;;;;;26.91;45.59;99880.66;5028571;28;20426;-73
2022/06/20 08:19:12;;;;;;;9.10;3.47;;;;;;;26.84;45.89;99871.41;5029989;28;20411;-73
2022/06/20 08:21:42;;;;;;;7.73;3.90;;;;;;;26.89;45.85;99880.22;5029871;28;20964;-74
2022/06/20 08:24:34;;;;;;;6.53;3.57;;;;;;;26.93;45.79;99877.53;5011459;28;20543;-73
2022/06/20 08:27:06;;;;;;;7.95;3.40;;;;;;;26.87;45.87;99882.59;5030115;28;20792;-74
2022/06/20 08:29:46;;;;;;;11.00;3.37;;;;;;;26.84;45.70;99893.63;5027414;28;20406;-74
2022/06/20 08:32:54;;;;;;;6.95;3.40;;;;;;;26.92;45.90;99896.19;5033201;28;20502;-73
2022/06/20 08:35:45;;;;;;;9.95;3.00;;;;;;;27.13;45.59;99898.56;5020174;28;20430;-73
2022/06/20 08:38:36;;;;;;;6.20;3.03;;;;;;;27.15;45.58;99896.22;5030961;28;20416;-73
2022/06/20 08:41:22;;;;;;;8.07;3.53;;;;;;;27.09;45.97;99894.91;5026359;28;20395;-73
2022/06/20 08:44:26;;;;;;;8.13;3.40;;;;;;;27.13;46.04;99904.94;5028285;28;20399;-73
2022/06/20 08:47:17;;;;;;;7.10;3.08;;;;;;;27.17;46.12;99904.97;5032788;28;20793;-73
2022/06/20 08:50:10;;;;;;;8.18;3.38;;;;;;;27.23;45.81;99907.09;5030067;28;20766;-73
2022/06/20 08:53:11;;;;;;;7.55;3.03;;;;;;;27.17;45.77;99907.75;5025153;28;20414;-73
2022/06/20 08:56:06;;;;;;;9.93;3.85;;;;;;;27.07;46.13;99894.47;5029463;28;20894;-73
2022/06/20 08:58:51;;;;;;;9.60;3.28;;;;;;;27.26;46.12;99916.69;5033128;28;20415;-73
2022/06/20 09:01:19;;;;;;;12.38;3.10;;;;;;;27.36;45.64;99916.09;5033730;28;20793;-73
2022/06/20 09:04:03;;;;;;;12.05;3.47;;;;;;;27.42;45.27;99911.00;5031320;28;20395;-74
2022/06/20 09:06:52;;;;;;;7.88;3.22;;;;;;;27.62;44.57;99915.38;5033595;28;20439;-74
2022/06/20 09:09:39;;;;;;;8.32;3.63;;;;;;;27.80;44.29;99920.06;5033366;28;20770;-73
2022/06/20 09:12:16;;;;;;;8.10;3.50;;;;;;;28.10;43.33;99925.72;5030669;28;20417;-74
2022/06/20 09:14:55;;;;;;;7.85;3.45;;;;;;;28.23;43.04;99934.66;5024903;28;20430;-73
2022/06/20 09:17:28;;;;;;;10.77;3.75;;;;;;;28.18;43.02;99923.84;5015774;28;20399;-73
2022/06/20 09:20:09;;;;;;;7.00;3.03;;;;;;;28.00;43.55;99925.53;5032096;28;20426;-74
2022/06/20 09:22:53;;;;;;;9.23;3.67;;;;;;;27.84;44.43;99920.09;5030406;28;20415;-73
2022/06/20 09:25:50;;;;;;;9.10;3.63;;;;;;;27.74;44.99;99926.31;5032052;28;20869;-73
2022/06/20 09:28:37;;;;;;;7.95;3.95;;;;;;;27.59;45.51;99927.25;5007968;28;20402;-74
2022/06/20 09:31:38;;;;;;;7.53;3.40;;;;;;;27.48;46.08;99932.63;5030266;28;20441;-74
2022/06/20 09:34:12;;;;;;;11.48;3.92;;;;;;;27.49;46.16;99927.88;5009575;28;20442;-76
2022/06/20 09:36:43;;;;;;;7.80;3.28;;;;;;;27.58;46.18;99932.00;5028952;28;20482;-75
2022/06/20 09:39:29;;;;;;;6.00;3.72;;;;;;;27.90;45.86;99929.75;5028267;28;20928;-76
2022/06/20 09:42:07;;;;;;;7.30;3.77;;;;;;;28.01;45.09;99921.56;5024632;28;20426;-75
2022/06/20 09:44:55;;;;;;;7.95;3.65;;;;;;;28.10;44.88;99919.34;5025683;28;20418;-75
2022/06/20 09:47:35;;;;;;;12.73;3.92;;;;;;;28.09;45.31;99921.31;5023256;28;20403;-75
2022/06/20 09:50:22;;;;;;;5.70;3.63;;;;;;;28.15;45.33;99925.41;5027014;28;20421;-75
2022/06/20 09:53:12;;;;;;;8.40;3.97;;;;;;;28.30;45.06;99932.78;5029184;28;20521;-75
2022/06/20 09:55:49;;;;;;;8.10;4.03;;;;;;;28.54;44.81;99933.53;5031902;28;20410;-75
2022/06/20 09:58:32;;;;;;;9.55;4.28;;;;;;;29.07;44.06;99929.44;5032377;28;20415;-75
2022/06/20 10:01:12;;;;;;;7.55;3.70;;;;;;;29.46;42.91;99917.91;5023574;28;20395;-75
2022/06/20 10:04:00;;;;;;;9.02;3.50;;;;;;;29.65;42.42;99924.06;5024220;28;20428;-74
2022/06/20 10:06:55;;;;;;;12.95;4.78;;;;;;;29.63;42.11;99922.84;5014388;28;20423;-75
2022/06/20 10:09:42;;;;;;;9.07;3.78;;;;;;;29.78;41.78;99928.16;5008604;28;20493;-75
2022/06/20 10:12:17;;;;;;;7.75;3.80;;;;;;;29.77;41.84;99923.75;5031568;28;20404;-74
2022/06/20 10:14:59;;;;;;;7.93;3.30;;;;;;;30.33;40.66;99923.38;5025828;28;20419;-76
2022/06/20 10:17:47;;;;;;;7.47;3.70;;;;;;;30.27;39.89;99924.94;5029371;28;20433;-75
2022/06/20 10:20:21;;;;;;;9.60;3.53;;;;;;;29.77;41.49;99917.41;5028870;28;20437;-75
2022/06/20 10:22:57;;;;;;;9.52;3.50;;;;;;;29.54;41.48;99914.78;5029209;28;20407;-77
2022/06/20 10:25:38;;;;;;;9.15;3.92;;;;;;;29.32;42.35;99916.56;5021330;28;20443;-76
2022/06/20 10:28:42;;;;;;;9.85;3.92;;;;;;;29.13;43.09;99919.53;5010782;28;20395;-75
2022/06/20 10:35:05;;;;;;;11.07;3.90;;;;;;;29.33;43.05;99942.50;4994168;28;20413;-73
2022/06/20 10:38:01;;;;;;;9.20;3.72;;;;;;;29.95;41.81;99948.28;5000811;28;20878;-73
2022/06/20 10:44:06;;;;;;;10.23;3.53;;;;;;;30.92;39.92;99957.69;4987095;28;20409;-74
2022/06/20 10:46:40;;;;;;;9.20;3.30;;;;;;;30.42;40.37;99962.22;4989519;28;20430;-74
2022/06/20 10:49:11;;;;;;;8.32;3.53;;;;;;;30.25;40.76;99958.09;4998537;28;21066;-74
2022/06/20 10:55:38;;;;;;;7.05;3.13;;;;;;;30.53;40.09;99965.09;5002716;28;20946;-73
2022/06/20 10:58:30;;;;;;;8.00;2.80;;;;;;;30.61;40.24;99975.13;4986086;28;20435;-73
2022/06/20 11:01:16;;;;;;;7.80;2.50;;;;;;;31.71;38.11;99979.94;4989275;28;20411;-73
2022/06/20 11:04:00;;;;;;;9.05;2.83;;;;;;;33.83;34.92;99978.56;4993190;28;20409;-73
2022/06/20 11:06:35;;;;;;;7.07;2.63;;;;;;;33.57;34.46;99982.72;5022607;28;20895;-73
2022/06/20 11:09:16;;;;;;;4.45;2.70;;;;;;;31.87;36.69;99980.38;5024109;28;21120;-73
2022/06/20 11:11:52;;;;;;;6.00;2.95;;;;;;;32.76;36.10;99978.31;5028632;28;20414;-73
2022/06/20 11:14:17;;;;;;;6.63;2.30;;;;;;;34.77;32.29;99987.38;5030515;28;20462;-73
2022/06/20 11:17:10;;;;;;;6.37;2.63;;;;;;;35.85;30.08;99982.69;5030302;28;20427;-73
2022/06/20 11:19:54;;;;;;;4.10;2.08;;;;;;;35.02;31.39;99983.44;5027555;28;20774;-73
2022/06/20 11:22:56;;;;;;;3.67;1.90;;;;;;;34.83;31.74;99988.50;5029334;28;20877;-74
2022/06/20 11:25:41;;;;;;;5.40;1.95;;;;;;;34.62;31.54;99993.53;5005188;28;20413;-73
2022/06/20 11:28:24;;;;;;;3.25;1.70;;;;;;;34.67;31.43;99999.53;5027385;28;20412;-71
2022/06/20 11:31:29;;;;;;;4.22;2.08;;;;;;;34.89;31.82;99989.63;5028896;28;20422;-73
2022/06/20 11:34:16;;;;;;;4.57;1.60;;;;;;;35.00;30.71;100000.75;5012834;28;20430;-71
2022/06/20 11:37:15;;;;;;;3.78;1.98;;;;;;;34.18;31.57;100000.81;5030621;28;20920;-72
2022/06/20 11:40:15;;;;;;;5.72;1.52;;;;;;;32.82;33.84;100009.53;5022022;28;20416;-74
2022/06/20 11:42:48;;;;;;;4.30;1.90;;;;;;;31.97;35.47;100028.41;5030754;28;20406;-74
2022/06/20 11:45:45;;;;;;;5.47;1.60;;;;;;;31.46;36.15;100037.88;5022818;28;20816;-73
2022/06/20 11:48:22;;;;;;;5.75;1.80;;;;;;;31.09;37.22;100046.53;5026159;28;20395;-73
2022/06/20 11:51:04;;;;;;;5.00;1.95;;;;;;;30.67;37.96;100047.06;5023675;28;20399;-72
2022/06/20 11:54:01;;;;;;;3.83;2.50;;;;;;;30.38;39.48;100059.22;5028801;28;20407;-72
2022/06/20 11:56:41;;;;;;;6.60;2.55;;;;;;;29.95;40.18;100066.44;5025136;28;20496;-74
2022/06/20 11:59:40;;;;;;;5.17;2.30;;;;;;;29.64;41.38;100076.03;5025215;28;20407;-73
2022/06/20 12:02:24;;;;;;;5.18;2.50;;;;;;;29.37;42.50;100077.34;5023909;28;20774;-74
2022/06/20 12:05:19;;;;;;;4.57;2.08;;;;;;;29.27;43.19;100078.00;5023682;28;20407;-74
2022/06/20 12:08:02;;;;;;;4.05;2.03;;;;;;;29.29;43.00;100078.41;5031264;28;20415;-73
2022/06/20 12:10:46;;;;;;;6.67;2.37;;;;;;;29.27;43.36;100078.81;5028000;28;20417;-74
2022/06/20 12:13:31;;;;;;;9.45;3.03;;;;;;;29.22;43.48;100087.47;5034090;28;20460;-74
2022/06/20 12:16:31;;;;;;;6.03;2.13;;;;;;;29.07;43.74;100082.09;5032186;28;20426;-74
2022/06/20 12:24:49;;;;;;;5.10;2.13;;;;;;;28.95;44.80;100080.31;5034353;28;20388;-74
2022/06/20 12:27:19;;;;;;;6.00;2.30;;;;;;;28.96;44.76;100070.78;5036008;28;20407;-74
2022/06/20 12:29:47;;;;;;;4.47;1.98;;;;;;;29.03;44.88;100082.03;5035721;28;20402;-74
2022/06/20 12:32:17;;;;;;;5.47;2.10;;;;;;;28.89;44.76;100084.63;5033381;28;20494;-73
2022/06/20 12:35:15;;;;;;;4.80;2.28;;;;;;;28.82;44.88;100084.50;5035342;28;21009;-74
2022/06/20 12:37:53;;;;;;;5.25;1.77;;;;;;;28.85;44.74;100081.78;5028966;28;20485;-74
2022/06/20 12:40:27;;;;;;;4.28;1.83;;;;;;;28.95;44.36;100093.50;5015082;28;20441;-73
2022/06/20 12:43:05;;;;;;;4.80;1.75;;;;;;;29.11;44.44;100092.09;5029550;28;20393;-74